Time;durP1;ratioP1;P1;durP2;ratioP2;P2;SDS_P1;SDS_P2;PMS_P1;PMS_P2;Temp;Humidity;BMP_temperature;BMP_pressure;BME280_temperature;BME280_humidity;BME280_pressure;Samples;Min_cycle;Max_cycle;Signal;HPM_P1;HPM_P2
2021/01/14 00:02:05;;;;;;;7.20;0.60;;;3.90;90.60;;;;;;5014748;28;20033;-91
2021/01/14 00:04:31;;;;;;;7.85;0.50;;;3.90;90.50;;;;;;5008685;28;20446;-91
2021/01/14 00:06:57;;;;;;;9.60;0.50;;;3.90;90.50;;;;;;5014479;28;20033;-92
2021/01/14 00:09:24;;;;;;;11.77;0.70;;;3.90;90.40;;;;;;5014814;28;20478;-92
2021/01/14 00:11:49;;;;;;;12.65;0.70;;;3.90;90.30;;;;;;5014705;28;20056;-91
2021/01/14 00:14:15;;;;;;;8.50;0.50;;;3.80;90.20;;;;;;5014593;28;20124;-92
2021/01/14 00:16:40;;;;;;;14.25;0.50;;;3.80;90.20;;;;;;5012442;28;20034;-92
2021/01/14 00:19:06;;;;;;;7.68;1.10;;;3.80;90.10;;;;;;5015939;28;20026;-91
2021/01/14 00:21:39;;;;;;;5.93;0.40;;;3.80;90.00;;;;;;5015037;28;20116;-91
2021/01/14 00:24:05;;;;;;;7.60;0.75;;;3.70;89.90;;;;;;5022440;28;20030;-90
2021/01/14 00:26:31;;;;;;;6.00;0.40;;;3.80;89.80;;;;;;5011670;28;20088;-91
2021/01/14 00:28:57;;;;;;;9.55;1.25;;;3.70;89.40;;;;;;5030038;28;20034;-91
2021/01/14 00:31:22;;;;;;;7.28;0.85;;;3.70;89.30;;;;;;5013465;28;20088;-92
2021/01/14 00:33:48;;;;;;;6.93;0.70;;;3.70;89.20;;;;;;5015146;28;20052;-92
2021/01/14 00:36:13;;;;;;;9.23;0.40;;;3.70;88.80;;;;;;5014972;28;20109;-91
2021/01/14 00:38:39;;;;;;;4.97;0.30;;;3.70;88.60;;;;;;5014314;28;20038;-91
2021/01/14 00:41:04;;;;;;;5.97;0.40;;;3.70;88.50;;;;;;5013564;28;20422;-92
2021/01/14 00:43:31;;;;;;;6.90;0.47;;;3.60;88.40;;;;;;5013888;28;20026;-91
2021/01/14 00:45:57;;;;;;;9.10;0.50;;;3.60;88.30;;;;;;5014238;28;20387;-92
2021/01/14 00:48:22;;;;;;;9.60;0.63;;;3.50;88.20;;;;;;5014375;28;20030;-92
2021/01/14 00:50:49;;;;;;;9.63;0.40;;;3.50;88.10;;;;;;5014596;28;20092;-92
2021/01/14 00:53:15;;;;;;;6.82;0.55;;;3.50;88.00;;;;;;5014155;28;20509;-92
2021/01/14 00:55:40;;;;;;;4.45;0.73;;;3.50;87.90;;;;;;5010970;28;20026;-92
2021/01/14 00:58:06;;;;;;;9.43;0.45;;;3.50;87.80;;;;;;5013094;28;20044;-91
2021/01/14 01:00:31;;;;;;;5.68;0.35;;;3.50;87.80;;;;;;5013944;28;20040;-92
2021/01/14 01:02:57;;;;;;;7.18;0.30;;;3.50;87.70;;;;;;5011318;28;20435;-92
2021/01/14 01:05:23;;;;;;;9.77;0.73;;;3.50;87.60;;;;;;5013291;28;20060;-91
2021/01/14 01:07:57;;;;;;;10.77;0.28;;;3.50;87.60;;;;;;5013506;28;20038;-91
2021/01/14 01:10:22;;;;;;;6.05;0.70;;;3.50;87.60;;;;;;5013504;28;20045;-91
2021/01/14 01:12:53;;;;;;;6.57;0.93;;;3.50;87.60;;;;;;5013082;28;20366;-91
2021/01/14 01:15:18;;;;;;;9.80;0.52;;;3.40;87.30;;;;;;5014369;28;20385;-92
2021/01/14 01:17:44;;;;;;;6.10;0.40;;;3.40;87.30;;;;;;5013892;28;20026;-92
2021/01/14 01:20:10;;;;;;;14.35;0.68;;;3.40;87.10;;;;;;5013355;28;20048;-92
2021/01/14 01:22:35;;;;;;;7.07;0.60;;;3.40;87.10;;;;;;5013351;28;20030;-92
2021/01/14 01:25:01;;;;;;;6.97;0.30;;;3.30;87.20;;;;;;5013832;28;20083;-92
2021/01/14 01:27:27;;;;;;;13.73;1.58;;;3.30;87.30;;;;;;5012979;28;20045;-92
2021/01/14 01:29:52;;;;;;;9.57;0.35;;;3.20;87.30;;;;;;5013750;28;20018;-91
2021/01/14 01:32:18;;;;;;;7.70;0.35;;;3.20;87.40;;;;;;5013999;28;20034;-91
2021/01/14 01:34:43;;;;;;;10.05;0.50;;;3.10;87.30;;;;;;5013277;28;20029;-92
2021/01/14 01:37:09;;;;;;;8.82;0.70;;;3.10;87.20;;;;;;5012539;28;20409;-93
2021/01/14 01:39:34;;;;;;;12.55;0.60;;;3.10;87.30;;;;;;5013937;28;20030;-91
2021/01/14 01:42:00;;;;;;;5.80;0.30;;;3.10;87.50;;;;;;5009308;28;20037;-92
2021/01/14 01:44:26;;;;;;;6.78;0.40;;;3.00;87.50;;;;;;5011612;28;20030;-90
2021/01/14 01:46:56;;;;;;;9.30;0.40;;;3.00;87.60;;;;;;5009728;28;20038;-91
2021/01/14 01:49:22;;;;;;;8.95;0.55;;;3.00;87.70;;;;;;5000938;28;20046;-89
2021/01/14 01:51:51;;;;;;;6.93;0.47;;;3.00;87.80;;;;;;5011370;28;20026;-90
2021/01/14 01:54:17;;;;;;;4.15;0.40;;;2.90;87.90;;;;;;5013702;28;20038;-92
2021/01/14 01:56:42;;;;;;;6.63;0.40;;;2.90;87.90;;;;;;5013549;28;20022;-91
2021/01/14 01:59:09;;;;;;;11.43;0.50;;;2.90;87.90;;;;;;5012401;28;20034;-91
2021/01/14 02:01:37;;;;;;;6.75;0.30;;;2.90;88.00;;;;;;5011444;28;20076;-91
2021/01/14 02:04:07;;;;;;;7.32;0.50;;;2.90;88.00;;;;;;5013079;28;20532;-91
2021/01/14 02:06:41;;;;;;;11.55;0.47;;;2.90;88.10;;;;;;5008420;28;20553;-91
2021/01/14 02:09:09;;;;;;;12.98;1.73;;;2.90;88.20;;;;;;5012487;28;20026;-91
2021/01/14 02:11:41;;;;;;;4.60;0.40;;;2.80;88.20;;;;;;5011691;28;20025;-90
2021/01/14 02:14:23;;;;;;;10.43;0.70;;;2.90;88.30;;;;;;5009275;28;20026;-91
2021/01/14 02:16:50;;;;;;;10.23;0.55;;;2.80;88.10;;;;;;5012194;28;20036;-89
2021/01/14 02:19:20;;;;;;;6.68;0.40;;;2.80;88.10;;;;;;5012689;28;20529;-90
2021/01/14 02:21:47;;;;;;;8.77;0.40;;;2.80;88.10;;;;;;5012631;28;20406;-91
2021/01/14 02:24:28;;;;;;;8.63;0.50;;;2.70;88.10;;;;;;5013575;28;20030;-90
2021/01/14 02:26:54;;;;;;;5.35;0.63;;;2.70;88.10;;;;;;5012975;28;20509;-90
2021/01/14 02:29:20;;;;;;;10.02;1.15;;;2.70;88.10;;;;;;5012519;28;20026;-90
2021/01/14 02:31:45;;;;;;;8.10;0.47;;;2.70;88.10;;;;;;5012856;28;20036;-91
2021/01/14 02:34:11;;;;;;;7.18;0.60;;;2.70;88.10;;;;;;5011818;28;20116;-91
2021/01/14 02:36:36;;;;;;;5.43;0.40;;;2.70;88.00;;;;;;5012077;28;20034;-91
2021/01/14 02:39:02;;;;;;;7.72;0.68;;;2.70;87.90;;;;;;5012581;28;20033;-92
2021/01/14 02:41:28;;;;;;;4.47;1.10;;;2.70;87.80;;;;;;5012731;28;20026;-93
2021/01/14 02:43:53;;;;;;;4.30;0.43;;;2.70;87.70;;;;;;5012289;28;20026;-92
2021/01/14 02:46:22;;;;;;;6.78;0.45;;;2.70;87.60;;;;;;5011891;28;20088;-93
2021/01/14 02:49:05;;;;;;;7.35;0.40;;;2.70;87.40;;;;;;5012881;28;20125;-92
2021/01/14 02:51:47;;;;;;;6.97;1.13;;;2.80;87.40;;;;;;5012577;28;20113;-92
2021/01/14 02:54:14;;;;;;;4.13;0.40;;;2.70;87.50;;;;;;5008359;28;20034;-92
2021/01/14 02:56:41;;;;;;;6.53;0.55;;;2.70;87.50;;;;;;5023218;28;20398;-93
2021/01/14 02:59:09;;;;;;;8.27;0.47;;;2.70;87.50;;;;;;5026103;28;20085;-91
2021/01/14 03:01:35;;;;;;;7.32;0.40;;;2.60;87.40;;;;;;5012755;28;20030;-91
2021/01/14 03:04:00;;;;;;;8.52;0.40;;;2.60;87.60;;;;;;5012581;28;20014;-92
2021/01/14 03:06:26;;;;;;;9.85;0.45;;;2.60;87.80;;;;;;5012889;28;20026;-92
2021/01/14 03:08:51;;;;;;;4.05;0.50;;;2.60;88.10;;;;;;5015744;28;20497;-92
2021/01/14 03:11:28;;;;;;;4.70;0.30;;;2.60;88.20;;;;;;5016161;28;20041;-93
2021/01/14 03:13:54;;;;;;;4.18;0.52;;;2.60;88.20;;;;;;5015806;28;20022;-91
2021/01/14 03:16:20;;;;;;;9.10;0.40;;;2.50;88.30;;;;;;5016694;28;20044;-90
2021/01/14 03:18:48;;;;;;;7.75;0.52;;;2.50;88.40;;;;;;5032783;28;20018;-91
2021/01/14 03:21:17;;;;;;;5.65;0.50;;;2.50;88.40;;;;;;5016114;28;20041;-90
2021/01/14 03:23:43;;;;;;;6.30;0.45;;;2.50;88.50;;;;;;5015777;28;20022;-90
2021/01/14 03:26:11;;;;;;;6.32;0.40;;;2.40;88.50;;;;;;5015140;28;20044;-91
2021/01/14 03:28:37;;;;;;;3.92;0.30;;;2.40;88.60;;;;;;5015803;28;20041;-92
2021/01/14 03:31:02;;;;;;;9.60;0.52;;;2.40;88.60;;;;;;5015280;28;20025;-90
2021/01/14 03:33:28;;;;;;;6.15;0.60;;;2.30;88.60;;;;;;5017861;28;20125;-91
2021/01/14 03:35:54;;;;;;;8.90;0.52;;;2.30;88.70;;;;;;5015166;28;20382;-91
2021/01/14 03:38:19;;;;;;;4.75;0.40;;;2.30;88.80;;;;;;5015642;28;20030;-90
2021/01/14 03:40:45;;;;;;;9.20;0.70;;;2.30;88.80;;;;;;5015843;28;20509;-90
2021/01/14 03:43:10;;;;;;;4.72;0.30;;;2.20;88.90;;;;;;5015116;28;20026;-91
2021/01/14 03:45:36;;;;;;;4.32;0.60;;;2.20;89.00;;;;;;5011869;28;20049;-91
2021/01/14 03:48:02;;;;;;;9.00;0.40;;;2.10;89.00;;;;;;5011217;28;20445;-91
2021/01/14 03:50:27;;;;;;;3.47;0.40;;;2.10;89.20;;;;;;5015332;28;20501;-91
2021/01/14 03:52:53;;;;;;;3.35;0.32;;;2.00;89.30;;;;;;5015145;28;20124;-92
2021/01/14 03:55:18;;;;;;;4.15;0.38;;;2.00;89.40;;;;;;5014470;28;20026;-91
2021/01/14 03:57:44;;;;;;;4.18;0.52;;;2.00;89.50;;;;;;5014983;28;20037;-91
2021/01/14 04:00:10;;;;;;;5.53;0.28;;;1.90;89.60;;;;;;5015488;28;20029;-92
2021/01/14 04:02:36;;;;;;;6.60;0.40;;;1.90;89.80;;;;;;5011757;28;20037;-92
2021/01/14 04:05:01;;;;;;;5.90;0.57;;;1.80;90.00;;;;;;5012908;28;20494;-91
2021/01/14 04:07:27;;;;;;;9.18;0.40;;;1.80;90.10;;;;;;5014789;28;20034;-92
2021/01/14 04:09:52;;;;;;;7.28;0.60;;;1.80;90.10;;;;;;5015283;28;20017;-91
2021/01/14 04:12:26;;;;;;;15.02;2.15;;;1.70;90.20;;;;;;5015203;28;20105;-91
2021/01/14 04:14:52;;;;;;;5.97;0.60;;;1.80;90.30;;;;;;5014352;28;20498;-91
2021/01/14 04:17:17;;;;;;;6.07;0.40;;;1.70;90.30;;;;;;5015123;28;20064;-91
2021/01/14 04:19:43;;;;;;;5.30;0.40;;;1.70;90.30;;;;;;5013417;28;20076;-91
2021/01/14 04:22:08;;;;;;;4.40;0.38;;;1.70;90.30;;;;;;5014839;28;20100;-90
2021/01/14 04:24:36;;;;;;;4.97;0.50;;;1.70;90.40;;;;;;5013694;28;20084;-91
2021/01/14 04:27:05;;;;;;;4.25;0.40;;;1.70;90.50;;;;;;5014608;28;20034;-92
2021/01/14 04:29:31;;;;;;;6.47;0.40;;;1.70;90.50;;;;;;5011379;28;20537;-90
2021/01/14 04:31:57;;;;;;;5.60;0.40;;;1.70;90.50;;;;;;5013579;28;20030;-91
2021/01/14 04:34:23;;;;;;;6.25;0.38;;;1.70;90.60;;;;;;5013829;28;20026;-90
2021/01/14 04:36:59;;;;;;;7.30;0.75;;;1.60;90.60;;;;;;5014970;28;20030;-90
2021/01/14 04:39:25;;;;;;;4.47;0.40;;;1.70;90.60;;;;;;5015864;28;20529;-92
2021/01/14 04:41:58;;;;;;;9.23;0.63;;;1.70;90.70;;;;;;5015198;28;20025;-91
2021/01/14 04:44:27;;;;;;;4.65;0.55;;;1.70;90.70;;;;;;5015570;28;20076;-91
2021/01/14 04:47:06;;;;;;;10.15;0.70;;;1.70;90.70;;;;;;5015133;28;20069;-90
2021/01/14 04:49:32;;;;;;;5.00;0.50;;;1.70;90.70;;;;;;5012394;28;20484;-90
2021/01/14 04:52:03;;;;;;;2.78;0.32;;;1.70;90.70;;;;;;5000374;28;20023;-92
2021/01/14 04:54:33;;;;;;;3.17;0.32;;;1.70;90.70;;;;;;5013361;28;20033;-91
2021/01/14 04:57:04;;;;;;;5.00;0.30;;;1.70;90.70;;;;;;5015138;28;20036;-90
2021/01/14 04:59:32;;;;;;;4.75;0.50;;;1.70;90.70;;;;;;5010796;28;20030;-90
2021/01/14 05:01:58;;;;;;;9.23;0.40;;;1.70;90.60;;;;;;5011758;28;20034;-90
2021/01/14 05:04:30;;;;;;;9.98;1.50;;;1.70;90.60;;;;;;5013494;28;20061;-91
2021/01/14 05:06:58;;;;;;;5.70;0.60;;;1.70;90.60;;;;;;5012316;28;20398;-90
2021/01/14 05:09:25;;;;;;;5.43;0.40;;;1.70;90.60;;;;;;5015311;28;20411;-90
2021/01/14 05:11:58;;;;;;;8.25;0.50;;;1.70;90.60;;;;;;5014743;28;20486;-91
2021/01/14 05:14:23;;;;;;;;;;;1.70;90.60;;;;;;5012983;28;20026;-89
2021/01/14 05:16:50;;;;;;;3.25;0.30;;;1.70;90.60;;;;;;5013702;28;20262;-90
2021/01/14 05:19:16;;;;;;;5.22;0.40;;;1.70;90.60;;;;;;5013093;28;20451;-91
2021/01/14 05:21:44;;;;;;;6.80;0.60;;;1.70;90.50;;;;;;5028239;28;20088;-90
2021/01/14 05:24:14;;;;;;;4.43;0.40;;;1.80;90.50;;;;;;5013403;28;20057;-90
2021/01/14 05:26:44;;;;;;;10.25;0.50;;;1.80;90.50;;;;;;5026649;28;20044;-91
2021/01/14 05:29:17;;;;;;;7.15;0.40;;;1.80;90.50;;;;;;5019395;28;20030;-91
2021/01/14 05:31:43;;;;;;;2.95;0.32;;;1.90;90.50;;;;;;5012269;28;20025;-89
2021/01/14 05:34:09;;;;;;;3.25;0.40;;;1.90;90.50;;;;;;5014348;28;20029;-90
2021/01/14 05:36:54;;;;;;;5.75;0.60;;;1.90;90.50;;;;;;5014123;28;20028;-90
2021/01/14 05:39:21;;;;;;;6.45;0.30;;;1.90;90.50;;;;;;5012843;28;20108;-91
2021/01/14 05:41:48;;;;;;;9.00;0.60;;;1.80;90.60;;;;;;5013381;28;20022;-91
2021/01/14 05:44:14;;;;;;;4.03;0.40;;;1.80;90.60;;;;;;5013289;28;20083;-89
2021/01/14 05:46:40;;;;;;;4.43;0.50;;;1.80;90.70;;;;;;5009082;28;20049;-90
2021/01/14 05:49:09;;;;;;;2.60;0.60;;;1.80;90.70;;;;;;4993989;28;20022;-89
2021/01/14 05:51:34;;;;;;;6.43;0.47;;;1.80;90.80;;;;;;5012790;28;20038;-89
2021/01/14 05:54:11;;;;;;;4.55;0.40;;;1.70;90.70;;;;;;5009618;28;20022;-91
2021/01/14 05:56:47;;;;;;;5.28;0.30;;;1.80;90.80;;;;;;5007053;28;20041;-91
2021/01/14 05:59:15;;;;;;;5.50;0.60;;;1.70;90.80;;;;;;5012399;28;20505;-91
2021/01/14 06:01:57;;;;;;;2.88;0.57;;;1.70;90.80;;;;;;5009104;28;20041;-91
2021/01/14 06:04:27;;;;;;;9.38;0.60;;;1.70;90.80;;;;;;5012576;28;20502;-92
2021/01/14 06:06:57;;;;;;;5.78;0.70;;;1.70;90.80;;;;;;5010315;28;20030;-93
2021/01/14 06:09:23;;;;;;;6.82;0.50;;;1.70;90.80;;;;;;5012098;28;20026;-93
2021/01/14 06:11:50;;;;;;;2.75;0.38;;;1.70;90.80;;;;;;5012840;28;20025;-91
2021/01/14 06:14:27;;;;;;;5.53;0.60;;;1.70;90.80;;;;;;5012832;28;20417;-92
2021/01/14 06:16:52;;;;;;;7.35;0.70;;;1.80;90.80;;;;;;5011739;28;20493;-93
2021/01/14 06:19:18;;;;;;;6.13;0.88;;;1.80;90.70;;;;;;5011592;28;20026;-93
2021/01/14 06:21:48;;;;;;;10.63;0.50;;;1.80;90.70;;;;;;5012856;28;20045;-92
2021/01/14 06:24:18;;;;;;;5.93;0.77;;;1.80;90.70;;;;;;5012595;28;20026;-91
2021/01/14 06:26:45;;;;;;;6.53;1.02;;;1.80;90.60;;;;;;5012900;28;20030;-92
2021/01/14 06:29:27;;;;;;;6.40;0.95;;;1.80;90.50;;;;;;5008634;28;20022;-92
2021/01/14 06:32:12;;;;;;;9.60;0.50;;;1.80;90.50;;;;;;5005984;28;20026;-92
2021/01/14 06:34:42;;;;;;;7.13;0.30;;;1.70;90.50;;;;;;5016682;28;20037;-92
2021/01/14 06:37:20;;;;;;;7.47;0.52;;;1.70;90.60;;;;;;5012649;28;20022;-91
2021/01/14 06:39:51;;;;;;;4.55;0.47;;;1.70;90.60;;;;;;5009612;28;20033;-91
2021/01/14 06:42:32;;;;;;;5.40;0.50;;;1.70;90.70;;;;;;5015000;28;20037;-91
2021/01/14 06:45:09;;;;;;;5.68;0.28;;;1.70;90.70;;;;;;5017198;28;20026;-92
2021/01/14 06:47:46;;;;;;;4.93;0.45;;;1.70;90.70;;;;;;5016338;28;20033;-92
2021/01/14 06:50:27;;;;;;;6.78;0.40;;;1.70;90.70;;;;;;5016378;28;20126;-92
2021/01/14 06:52:53;;;;;;;10.13;0.57;;;1.70;90.70;;;;;;5015730;28;20034;-93
2021/01/14 06:55:27;;;;;;;2.65;0.40;;;1.70;90.80;;;;;;5014724;28;20026;-92
2021/01/14 06:58:02;;;;;;;3.17;0.47;;;1.60;90.80;;;;;;5016730;28;20029;-92
2021/01/14 07:00:30;;;;;;;5.80;0.40;;;1.60;90.80;;;;;;5013173;28;20029;-92
2021/01/14 07:03:16;;;;;;;3.17;0.40;;;1.60;90.90;;;;;;5028327;28;20072;-92
2021/01/14 07:05:54;;;;;;;14.05;0.52;;;1.60;90.90;;;;;;5027142;28;20030;-93
2021/01/14 07:09:02;;;;;;;4.18;0.40;;;1.60;90.90;;;;;;5017274;28;20033;-93
2021/01/14 07:11:33;;;;;;;4.75;0.40;;;1.50;91.00;;;;;;5003279;28;20110;-92
2021/01/14 07:14:11;;;;;;;10.93;0.60;;;1.50;91.00;;;;;;5014679;28;20378;-93
2021/01/14 07:16:41;;;;;;;17.23;1.27;;;1.50;91.00;;;;;;5015650;28;20037;-92
2021/01/14 07:19:07;;;;;;;4.80;0.40;;;1.60;91.10;;;;;;5020024;28;20018;-93
2021/01/14 07:21:36;;;;;;;3.70;0.40;;;1.60;91.10;;;;;;5023663;28;20053;-93
2021/01/14 07:24:18;;;;;;;5.85;0.30;;;1.50;91.10;;;;;;5020531;28;20030;-93
2021/01/14 07:26:44;;;;;;;4.97;0.30;;;1.50;91.10;;;;;;5007378;28;20026;-93
2021/01/14 07:29:11;;;;;;;4.80;0.40;;;1.50;91.10;;;;;;5008157;28;20040;-93
2021/01/14 07:31:47;;;;;;;2.92;0.32;;;1.50;91.10;;;;;;5014061;28;20406;-93
2021/01/14 07:34:36;;;;;;;5.18;0.50;;;1.50;91.10;;;;;;5015409;28;20030;-92
2021/01/14 07:37:03;;;;;;;4.10;0.45;;;1.50;91.10;;;;;;5013002;28;20100;-93
2021/01/14 07:39:50;;;;;;;2.97;0.50;;;1.50;91.10;;;;;;5014682;28;20026;-93
2021/01/14 07:42:24;;;;;;;6.68;0.40;;;1.50;91.10;;;;;;5016701;28;20032;-90
2021/01/14 07:44:53;;;;;;;6.78;0.47;;;1.50;91.10;;;;;;5016095;28;20131;-91
2021/01/14 07:47:32;;;;;;;4.97;0.95;;;1.50;91.10;;;;;;5015238;28;20546;-92
2021/01/14 07:50:27;;;;;;;6.32;0.45;;;1.40;91.00;;;;;;5015186;28;20026;-92
2021/01/14 07:52:57;;;;;;;7.85;0.60;;;1.40;90.90;;;;;;5013290;28;20030;-92
2021/01/14 07:55:29;;;;;;;9.32;0.40;;;1.40;90.90;;;;;;5003256;28;20049;-92
2021/01/14 07:58:08;;;;;;;;;;;1.40;90.90;;;;;;5016194;28;20026;-92
2021/01/14 08:00:34;;;;;;;10.55;0.70;;;1.40;90.90;;;;;;5011270;28;19913;-91
2021/01/14 08:03:13;;;;;;;2.78;0.32;;;1.30;90.90;;;;;;5011132;28;20037;-92
2021/01/14 08:05:56;;;;;;;5.70;0.30;;;1.30;90.90;;;;;;5016659;28;20054;-91
2021/01/14 08:08:37;;;;;;;3.33;0.50;;;1.30;90.90;;;;;;5009959;28;20442;-93
2021/01/14 08:11:17;;;;;;;4.65;0.50;;;1.30;90.90;;;;;;5014249;28;20041;-92
2021/01/14 08:14:06;;;;;;;4.18;0.57;;;1.30;90.90;;;;;;5015153;28;20058;-91
2021/01/14 08:16:40;;;;;;;2.60;0.47;;;1.30;90.90;;;;;;5015237;28;20068;-92
2021/01/14 08:19:34;;;;;;;6.38;0.40;;;1.30;91.00;;;;;;5012989;28;20018;-93
2021/01/14 08:22:05;;;;;;;6.93;0.50;;;1.40;91.00;;;;;;5031179;28;20053;-93
2021/01/14 08:24:42;;;;;;;6.65;0.60;;;1.40;90.90;;;;;;5013402;28;20018;-94
2021/01/14 08:27:15;;;;;;;13.50;0.88;;;1.50;90.90;;;;;;5014412;28;20073;-93
2021/01/14 08:29:44;;;;;;;5.00;0.50;;;1.50;90.90;;;;;;5015209;28;20028;-92
2021/01/14 08:32:31;;;;;;;6.15;0.50;;;1.60;90.80;;;;;;5016224;28;20390;-91
2021/01/14 08:34:58;;;;;;;4.40;0.52;;;1.60;90.70;;;;;;5014689;28;20022;-92
2021/01/14 08:37:45;;;;;;;8.23;0.60;;;1.60;90.70;;;;;;5013172;28;20025;-92
2021/01/14 08:40:23;;;;;;;5.78;0.50;;;1.70;90.70;;;;;;5027743;28;20092;-90
2021/01/14 08:43:00;;;;;;;2.92;0.57;;;1.80;90.70;;;;;;5014924;28;20041;-91
2021/01/14 08:45:31;;;;;;;6.07;0.50;;;1.80;90.70;;;;;;5018661;28;20044;-91
2021/01/14 08:48:07;;;;;;;6.22;0.50;;;1.80;90.60;;;;;;5010646;28;20096;-92
2021/01/14 08:50:36;;;;;;;6.22;0.52;;;1.90;90.60;;;;;;5009475;28;20049;-92
2021/01/14 08:53:04;;;;;;;8.73;1.02;;;1.90;90.60;;;;;;5011784;28;20028;-92
2021/01/14 08:55:29;;;;;;;7.28;1.13;;;1.90;90.60;;;;;;5012100;28;20036;-93
2021/01/14 08:57:56;;;;;;;3.53;0.60;;;1.90;90.50;;;;;;5009998;28;20116;-92
2021/01/14 09:00:23;;;;;;;6.03;0.63;;;2.00;90.50;;;;;;5015059;28;20025;-92
2021/01/14 09:02:49;;;;;;;10.50;1.33;;;2.00;90.50;;;;;;5013285;28;20026;-93
2021/01/14 09:05:15;;;;;;;4.32;0.65;;;2.10;90.50;;;;;;5009042;28;20033;-91
2021/01/14 09:07:40;;;;;;;3.47;0.65;;;2.10;90.50;;;;;;5017095;28;20022;-92
2021/01/14 09:10:08;;;;;;;9.60;0.82;;;2.20;90.50;;;;;;5013845;28;20042;-92
2021/01/14 09:12:35;;;;;;;6.15;0.90;;;2.20;90.50;;;;;;5009103;28;20029;-92
2021/01/14 09:15:03;;;;;;;3.08;0.50;;;2.20;90.50;;;;;;5012318;28;20042;-92
2021/01/14 09:17:30;;;;;;;9.02;0.80;;;2.20;90.40;;;;;;5010603;28;20120;-93
2021/01/14 09:19:56;;;;;;;7.45;0.90;;;2.30;90.50;;;;;;5013001;28;20100;-92
2021/01/14 09:22:28;;;;;;;8.48;0.95;;;2.30;90.40;;;;;;5013691;28;20038;-92
2021/01/14 09:24:53;;;;;;;2.80;0.43;;;2.30;90.40;;;;;;5012769;28;20033;-91
2021/01/14 09:27:25;;;;;;;5.78;0.40;;;2.30;90.40;;;;;;5012856;28;20046;-92
2021/01/14 09:29:50;;;;;;;7.78;1.88;;;2.40;90.40;;;;;;5013572;28;20029;-90
2021/01/14 09:32:16;;;;;;;3.33;0.70;;;2.40;90.30;;;;;;5013787;28;20033;-91
2021/01/14 09:34:41;;;;;;;4.85;0.60;;;2.40;90.30;;;;;;5013064;28;20069;-91
2021/01/14 09:37:20;;;;;;;10.18;1.48;;;2.40;90.20;;;;;;5005611;28;20395;-91
2021/01/14 09:39:46;;;;;;;5.95;0.52;;;2.40;89.80;;;;;;5013585;28;20117;-91
2021/01/14 09:42:12;;;;;;;6.68;0.77;;;2.40;90.00;;;;;;5013420;28;20042;-91
2021/01/14 09:44:38;;;;;;;8.02;0.98;;;2.50;89.70;;;;;;5014224;28;20040;-91
2021/01/14 09:47:04;;;;;;;5.25;0.88;;;2.50;89.80;;;;;;5012755;28;20029;-91
2021/01/14 09:49:30;;;;;;;9.48;1.10;;;2.50;89.50;;;;;;5013694;28;20026;-91
2021/01/14 09:51:55;;;;;;;7.53;0.75;;;2.50;88.90;;;;;;5013143;28;20044;-92
2021/01/14 09:54:22;;;;;;;5.65;0.80;;;2.50;88.90;;;;;;5013043;28;20418;-92
2021/01/14 09:56:50;;;;;;;6.35;1.45;;;2.50;88.10;;;;;;5013069;28;20136;-91
2021/01/14 09:59:43;;;;;;;7.70;1.20;;;2.50;87.80;;;;;;5013325;28;20101;-91
2021/01/14 10:02:29;;;;;;;5.50;1.33;;;2.50;87.90;;;;;;5013552;28;20022;-91
2021/01/14 10:05:01;;;;;;;4.47;0.88;;;2.40;87.20;;;;;;5009837;28;20085;-92
2021/01/14 10:07:27;;;;;;;4.77;1.00;;;2.50;87.00;;;;;;5008260;28;20063;-91
2021/01/14 10:09:54;;;;;;;4.35;1.00;;;2.40;87.10;;;;;;5007838;28;20389;-92
2021/01/14 10:12:20;;;;;;;8.20;1.10;;;2.50;87.50;;;;;;5020770;28;20029;-91
2021/01/14 10:14:45;;;;;;;9.13;1.73;;;2.50;87.30;;;;;;5010521;28;20037;-91
2021/01/14 10:17:16;;;;;;;10.40;1.80;;;2.50;86.80;;;;;;5012456;28;20456;-92
2021/01/14 10:19:48;;;;;;;6.10;1.13;;;2.50;86.90;;;;;;5014198;28;20073;-91
2021/01/14 10:22:14;;;;;;;6.72;1.33;;;2.60;87.20;;;;;;5028377;28;20053;-91
2021/01/14 10:24:40;;;;;;;6.90;1.10;;;2.60;87.10;;;;;;5016046;28;20034;-91
2021/01/14 10:27:11;;;;;;;6.53;1.15;;;2.60;86.80;;;;;;5012830;28;20034;-91
2021/01/14 10:29:40;;;;;;;5.20;1.25;;;2.60;86.70;;;;;;5015077;28;20030;-91
2021/01/14 10:32:08;;;;;;;5.15;1.10;;;2.60;86.50;;;;;;5013633;28;20026;-91
2021/01/14 10:34:46;;;;;;;7.85;1.60;;;2.70;86.70;;;;;;5012355;28;20026;-91
2021/01/14 10:37:31;;;;;;;6.45;1.60;;;2.70;86.60;;;;;;5011929;28;20028;-91
2021/01/14 10:39:58;;;;;;;9.98;1.58;;;2.70;86.50;;;;;;5011314;28;20166;-91
2021/01/14 10:42:37;;;;;;;21.25;1.50;;;2.70;86.20;;;;;;5011083;28;20461;-91
2021/01/14 10:45:10;;;;;;;7.75;1.30;;;2.70;86.40;;;;;;5013008;28;20030;-91
2021/01/14 10:47:37;;;;;;;7.05;1.42;;;2.70;86.20;;;;;;5012146;28;20116;-92
2021/01/14 10:50:25;;;;;;;7.35;1.00;;;2.70;85.60;;;;;;5012186;28;20033;-92
2021/01/14 10:52:59;;;;;;;9.27;1.40;;;2.60;85.40;;;;;;5005792;28;20501;-92
2021/01/14 10:55:28;;;;;;;9.50;1.17;;;2.60;85.70;;;;;;5008567;28;20030;-91
2021/01/14 10:57:55;;;;;;;5.22;1.08;;;2.60;85.70;;;;;;5011114;28;20189;-91
2021/01/14 11:00:32;;;;;;;8.35;1.13;;;2.60;85.70;;;;;;5010060;28;20141;-91
2021/01/14 11:03:07;;;;;;;6.40;1.17;;;2.60;85.70;;;;;;5010165;28;20030;-92
2021/01/14 11:05:45;;;;;;;8.77;1.00;;;2.60;85.20;;;;;;5006975;28;20045;-92
2021/01/14 11:08:40;;;;;;;6.40;1.13;;;2.60;85.40;;;;;;5001929;28;20034;-92
2021/01/14 11:11:08;;;;;;;4.25;1.00;;;2.60;85.50;;;;;;5008269;28;20073;-92
2021/01/14 11:13:39;;;;;;;8.65;1.40;;;2.60;85.50;;;;;;5005247;28;20026;-92
2021/01/14 11:16:06;;;;;;;10.63;1.65;;;2.70;85.30;;;;;;5007904;28;20034;-92
2021/01/14 11:18:43;;;;;;;9.27;1.73;;;2.70;85.50;;;;;;5011792;28;20026;-91
2021/01/14 11:21:10;;;;;;;7.43;1.08;;;2.80;85.20;;;;;;5011167;28;20072;-91
2021/01/14 11:23:36;;;;;;;8.95;1.60;;;2.80;85.40;;;;;;5011972;28;20482;-91
2021/01/14 11:26:02;;;;;;;6.50;1.75;;;2.90;85.30;;;;;;5015138;28;20076;-91
2021/01/14 11:28:32;;;;;;;12.10;1.70;;;2.90;84.80;;;;;;5010490;28;20038;-92
2021/01/14 11:30:59;;;;;;;4.90;1.20;;;3.00;84.70;;;;;;5011738;28;20028;-92
2021/01/14 11:33:25;;;;;;;10.38;1.67;;;3.00;84.80;;;;;;5008873;28;20490;-91
2021/01/14 11:35:50;;;;;;;6.20;1.55;;;3.00;84.40;;;;;;5011578;28;20053;-92
2021/01/14 11:38:18;;;;;;;8.25;1.40;;;3.10;84.10;;;;;;5014415;28;20022;-91
2021/01/14 11:40:44;;;;;;;7.63;1.50;;;3.10;84.30;;;;;;5016556;28;20105;-91
2021/01/14 11:43:10;;;;;;;7.22;1.17;;;3.20;84.50;;;;;;5008818;28;20027;-92
2021/01/14 11:45:35;;;;;;;4.97;1.25;;;3.20;84.50;;;;;;5015174;28;20130;-91
2021/01/14 11:48:01;;;;;;;10.27;2.60;;;3.40;84.60;;;;;;5013388;28;20426;-93
2021/01/14 11:50:26;;;;;;;5.43;1.90;;;3.40;84.40;;;;;;5014536;28;20049;-92
2021/01/14 11:52:52;;;;;;;11.45;2.95;;;3.50;84.30;;;;;;5014423;28;20034;-92
2021/01/14 11:55:17;;;;;;;7.18;1.58;;;3.50;84.20;;;;;;5013141;28;20770;-92
2021/01/14 11:57:43;;;;;;;7.00;2.10;;;3.50;84.00;;;;;;5015170;28;20038;-92
2021/01/14 12:00:09;;;;;;;4.63;1.90;;;3.50;83.90;;;;;;5015194;28;20041;-91
2021/01/14 12:02:35;;;;;;;7.60;2.70;;;3.40;83.70;;;;;;5014096;28;20034;-91
2021/01/14 12:05:00;;;;;;;9.52;2.85;;;3.40;82.80;;;;;;5007658;28;20032;-90
2021/01/14 12:07:26;;;;;;;6.10;1.65;;;3.40;83.30;;;;;;5014886;28;20037;-91
2021/01/14 12:09:51;;;;;;;7.40;1.63;;;3.30;83.20;;;;;;5013366;28;20050;-90
2021/01/14 12:12:17;;;;;;;7.70;1.80;;;3.20;82.90;;;;;;5015066;28;20536;-91
2021/01/14 12:14:42;;;;;;;6.05;1.50;;;3.20;83.20;;;;;;5012652;28;20026;-91
2021/01/14 12:17:08;;;;;;;5.63;1.25;;;3.20;83.40;;;;;;5014835;28;20064;-91
2021/01/14 12:19:33;;;;;;;4.00;1.08;;;3.20;83.40;;;;;;5008053;28;20504;-91
2021/01/14 12:22:00;;;;;;;7.20;1.33;;;3.10;83.00;;;;;;5014967;28;20513;-90
2021/01/14 12:24:26;;;;;;;6.13;1.50;;;3.10;82.50;;;;;;5017131;28;20025;-91
2021/01/14 12:26:52;;;;;;;6.80;1.35;;;3.10;82.70;;;;;;5015594;28;20033;-90
2021/01/14 12:29:17;;;;;;;5.18;1.33;;;3.10;82.80;;;;;;5015547;28;20040;-91
2021/01/14 12:31:43;;;;;;;7.75;1.48;;;3.20;82.60;;;;;;5011897;28;20033;-91
2021/01/14 12:34:08;;;;;;;4.68;1.15;;;3.10;81.90;;;;;;5012623;28;20111;-90
2021/01/14 12:36:34;;;;;;;3.78;0.80;;;3.00;81.50;;;;;;5010247;28;20034;-91
2021/01/14 12:39:00;;;;;;;7.25;1.60;;;3.00;81.60;;;;;;5006801;28;20033;-90
2021/01/14 12:41:33;;;;;;;9.13;1.35;;;3.10;81.20;;;;;;5021216;28;20056;-90
2021/01/14 12:43:59;;;;;;;8.40;1.30;;;3.10;81.70;;;;;;5010790;28;20896;-90
2021/01/14 12:46:51;;;;;;;8.07;1.25;;;3.10;81.30;;;;;;5010820;28;20033;-90
2021/01/14 12:49:19;;;;;;;4.45;1.45;;;3.10;81.00;;;;;;5010310;28;20046;-90
2021/01/14 12:51:45;;;;;;;4.65;1.70;;;3.00;81.10;;;;;;5011017;28;20026;-90
2021/01/14 12:54:11;;;;;;;5.85;1.30;;;3.00;80.50;;;;;;5024180;28;20048;-91
2021/01/14 12:56:38;;;;;;;3.78;1.23;;;3.00;81.10;;;;;;5005587;28;20030;-90
2021/01/14 12:59:05;;;;;;;7.88;1.80;;;3.10;81.40;;;;;;5010619;28;20026;-90
2021/01/14 13:01:31;;;;;;;5.38;1.52;;;3.00;81.50;;;;;;5010091;28;20040;-90
2021/01/14 13:03:58;;;;;;;5.93;1.25;;;3.00;81.10;;;;;;5009723;28;20068;-91
2021/01/14 13:06:32;;;;;;;5.53;1.67;;;2.90;80.80;;;;;;5010350;28;20835;-91
2021/01/14 13:08:59;;;;;;;3.25;1.17;;;2.80;80.80;;;;;;5011596;28;20037;-91